sensor_id;sensor_type;location;lat;lon;timestamp;P1;durP1;ratioP1;P2;durP2;ratioP2
32295;SDS011;18781;51.550;5.418;2023-03-07T00:01:50;4.60;;;3.08;;
32295;SDS011;18781;51.550;5.418;2023-03-07T00:04:16;4.00;;;3.40;;
32295;SDS011;18781;51.550;5.418;2023-03-07T00:06:41;4.60;;;3.35;;
32295;SDS011;18781;51.550;5.418;2023-03-07T00:09:08;6.30;;;3.40;;
32295;SDS011;18781;51.550;5.418;2023-03-07T00:11:33;4.05;;;2.88;;
32295;SDS011;18781;51.550;5.418;2023-03-07T00:13:59;4.00;;;2.63;;
32295;SDS011;18781;51.550;5.418;2023-03-07T00:16:25;4.97;;;2.40;;
32295;SDS011;18781;51.550;5.418;2023-03-07T00:18:50;3.00;;;1.90;;
32295;SDS011;18781;51.550;5.418;2023-03-07T00:21:17;2.20;;;2.00;;
32295;SDS011;18781;51.550;5.418;2023-03-07T00:23:44;2.60;;;1.70;;
32295;SDS011;18781;51.550;5.418;2023-03-07T00:26:12;1.30;;;1.20;;
32295;SDS011;18781;51.550;5.418;2023-03-07T00:28:42;3.55;;;1.85;;
32295;SDS011;18781;51.550;5.418;2023-03-07T00:31:10;2.35;;;1.48;;
32295;SDS011;18781;51.550;5.418;2023-03-07T00:33:37;2.53;;;1.30;;
32295;SDS011;18781;51.550;5.418;2023-03-07T00:36:05;1.48;;;1.30;;
32295;SDS011;18781;51.550;5.418;2023-03-07T00:38:35;3.85;;;1.60;;
32295;SDS011;18781;51.550;5.418;2023-03-07T00:41:04;5.28;;;1.40;;
32295;SDS011;18781;51.550;5.418;2023-03-07T00:43:32;2.60;;;1.50;;
32295;SDS011;18781;51.550;5.418;2023-03-07T00:45:58;1.73;;;1.30;;
32295;SDS011;18781;51.550;5.418;2023-03-07T00:48:25;2.20;;;1.30;;
32295;SDS011;18781;51.550;5.418;2023-03-07T00:50:51;2.35;;;1.25;;
32295;SDS011;18781;51.550;5.418;2023-03-07T00:53:17;1.42;;;1.10;;
32295;SDS011;18781;51.550;5.418;2023-03-07T00:55:53;2.58;;;1.30;;
32295;SDS011;18781;51.550;5.418;2023-03-07T00:58:24;2.63;;;1.40;;
32295;SDS011;18781;51.550;5.418;2023-03-07T01:00:51;1.55;;;1.00;;
32295;SDS011;18781;51.550;5.418;2023-03-07T01:03:17;1.38;;;1.20;;
32295;SDS011;18781;51.550;5.418;2023-03-07T01:05:43;1.50;;;1.33;;
32295;SDS011;18781;51.550;5.418;2023-03-07T01:08:09;2.80;;;1.63;;
32295;SDS011;18781;51.550;5.418;2023-03-07T01:10:35;3.92;;;1.88;;
32295;SDS011;18781;51.550;5.418;2023-03-07T01:13:00;2.25;;;1.88;;
32295;SDS011;18781;51.550;5.418;2023-03-07T01:15:32;2.80;;;1.98;;
32295;SDS011;18781;51.550;5.418;2023-03-07T01:17:58;3.03;;;2.05;;
32295;SDS011;18781;51.550;5.418;2023-03-07T01:20:24;3.90;;;2.40;;
32295;SDS011;18781;51.550;5.418;2023-03-07T01:22:49;3.47;;;2.30;;
32295;SDS011;18781;51.550;5.418;2023-03-07T01:25:15;3.70;;;2.30;;
32295;SDS011;18781;51.550;5.418;2023-03-07T01:27:40;2.88;;;2.30;;
32295;SDS011;18781;51.550;5.418;2023-03-07T01:30:07;2.72;;;2.40;;
32295;SDS011;18781;51.550;5.418;2023-03-07T01:32:33;3.13;;;2.58;;
32295;SDS011;18781;51.550;5.418;2023-03-07T01:34:59;4.70;;;2.88;;
32295;SDS011;18781;51.550;5.418;2023-03-07T01:37:24;3.53;;;2.83;;
32295;SDS011;18781;51.550;5.418;2023-03-07T01:39:50;3.67;;;2.50;;
32295;SDS011;18781;51.550;5.418;2023-03-07T01:42:17;4.25;;;2.58;;
32295;SDS011;18781;51.550;5.418;2023-03-07T01:47:32;3.65;;;3.10;;
32295;SDS011;18781;51.550;5.418;2023-03-07T01:49:59;4.97;;;3.70;;
32295;SDS011;18781;51.550;5.418;2023-03-07T01:55:05;4.88;;;3.33;;
32295;SDS011;18781;51.550;5.418;2023-03-07T01:57:36;6.00;;;3.67;;
32295;SDS011;18781;51.550;5.418;2023-03-07T02:00:05;6.90;;;3.92;;
32295;SDS011;18781;51.550;5.418;2023-03-07T02:02:34;5.40;;;4.40;;
32295;SDS011;18781;51.550;5.418;2023-03-07T02:07:35;6.32;;;4.93;;
32295;SDS011;18781;51.550;5.418;2023-03-07T02:10:05;6.50;;;4.75;;
32295;SDS011;18781;51.550;5.418;2023-03-07T02:12:32;6.97;;;4.30;;
32295;SDS011;18781;51.550;5.418;2023-03-07T02:14:58;9.85;;;5.20;;
32295;SDS011;18781;51.550;5.418;2023-03-07T02:17:25;6.90;;;4.95;;
32295;SDS011;18781;51.550;5.418;2023-03-07T02:22:32;6.50;;;5.03;;
32295;SDS011;18781;51.550;5.418;2023-03-07T02:25:00;5.78;;;4.75;;
32295;SDS011;18781;51.550;5.418;2023-03-07T02:27:30;7.07;;;4.95;;
32295;SDS011;18781;51.550;5.418;2023-03-07T02:29:58;7.07;;;4.75;;
32295;SDS011;18781;51.550;5.418;2023-03-07T02:32:24;6.93;;;5.18;;
32295;SDS011;18781;51.550;5.418;2023-03-07T02:34:49;7.47;;;4.85;;
32295;SDS011;18781;51.550;5.418;2023-03-07T02:37:17;6.30;;;4.45;;
32295;SDS011;18781;51.550;5.418;2023-03-07T02:39:45;8.82;;;4.50;;
32295;SDS011;18781;51.550;5.418;2023-03-07T02:42:16;9.07;;;4.53;;
32295;SDS011;18781;51.550;5.418;2023-03-07T02:44:46;5.05;;;4.28;;
32295;SDS011;18781;51.550;5.418;2023-03-07T02:47:19;5.22;;;3.72;;
32295;SDS011;18781;51.550;5.418;2023-03-07T02:49:44;5.93;;;4.20;;
32295;SDS011;18781;51.550;5.418;2023-03-07T02:52:10;6.55;;;4.07;;
32295;SDS011;18781;51.550;5.418;2023-03-07T02:54:36;7.15;;;3.90;;
32295;SDS011;18781;51.550;5.418;2023-03-07T02:57:02;7.60;;;4.00;;
32295;SDS011;18781;51.550;5.418;2023-03-07T02:59:28;6.95;;;4.30;;
32295;SDS011;18781;51.550;5.418;2023-03-07T03:01:54;6.10;;;3.95;;
32295;SDS011;18781;51.550;5.418;2023-03-07T03:04:20;8.45;;;4.30;;
32295;SDS011;18781;51.550;5.418;2023-03-07T03:06:46;8.50;;;4.75;;
32295;SDS011;18781;51.550;5.418;2023-03-07T03:09:12;7.03;;;4.22;;
32295;SDS011;18781;51.550;5.418;2023-03-07T03:11:38;5.28;;;4.30;;
32295;SDS011;18781;51.550;5.418;2023-03-07T03:14:03;7.13;;;3.85;;
32295;SDS011;18781;51.550;5.418;2023-03-07T03:16:29;6.07;;;4.15;;
32295;SDS011;18781;51.550;5.418;2023-03-07T03:18:55;9.68;;;4.10;;
32295;SDS011;18781;51.550;5.418;2023-03-07T03:21:20;7.43;;;4.43;;
32295;SDS011;18781;51.550;5.418;2023-03-07T03:23:46;4.80;;;3.88;;
32295;SDS011;18781;51.550;5.418;2023-03-07T03:26:12;7.45;;;3.95;;
32295;SDS011;18781;51.550;5.418;2023-03-07T03:28:37;7.00;;;4.22;;
32295;SDS011;18781;51.550;5.418;2023-03-07T03:31:05;5.43;;;3.85;;
32295;SDS011;18781;51.550;5.418;2023-03-07T03:33:32;8.30;;;4.00;;
32295;SDS011;18781;51.550;5.418;2023-03-07T03:35:59;5.45;;;3.97;;
32295;SDS011;18781;51.550;5.418;2023-03-07T03:38:29;5.18;;;3.60;;
32295;SDS011;18781;51.550;5.418;2023-03-07T03:40:55;5.75;;;4.07;;
32295;SDS011;18781;51.550;5.418;2023-03-07T03:43:21;6.22;;;3.80;;
32295;SDS011;18781;51.550;5.418;2023-03-07T03:45:54;7.25;;;4.28;;
32295;SDS011;18781;51.550;5.418;2023-03-07T03:48:20;4.97;;;3.70;;
32295;SDS011;18781;51.550;5.418;2023-03-07T03:50:46;6.95;;;4.40;;
32295;SDS011;18781;51.550;5.418;2023-03-07T03:53:12;6.07;;;4.18;;
32295;SDS011;18781;51.550;5.418;2023-03-07T03:55:37;7.03;;;4.07;;
32295;SDS011;18781;51.550;5.418;2023-03-07T03:58:03;4.95;;;3.50;;
32295;SDS011;18781;51.550;5.418;2023-03-07T04:00:29;6.18;;;3.55;;
32295;SDS011;18781;51.550;5.418;2023-03-07T04:02:55;5.50;;;3.67;;
32295;SDS011;18781;51.550;5.418;2023-03-07T04:05:20;5.10;;;3.00;;
32295;SDS011;18781;51.550;5.418;2023-03-07T04:07:46;3.42;;;2.95;;
32295;SDS011;18781;51.550;5.418;2023-03-07T04:10:12;5.05;;;3.00;;
32295;SDS011;18781;51.550;5.418;2023-03-07T04:12:38;4.63;;;3.13;;
32295;SDS011;18781;51.550;5.418;2023-03-07T04:15:04;4.57;;;3.00;;
32295;SDS011;18781;51.550;5.418;2023-03-07T04:17:31;3.80;;;3.10;;
32295;SDS011;18781;51.550;5.418;2023-03-07T04:19:57;3.47;;;3.03;;
32295;SDS011;18781;51.550;5.418;2023-03-07T04:22:22;6.25;;;3.30;;
32295;SDS011;18781;51.550;5.418;2023-03-07T04:24:48;4.90;;;3.35;;
32295;SDS011;18781;51.550;5.418;2023-03-07T04:27:14;7.20;;;3.60;;
32295;SDS011;18781;51.550;5.418;2023-03-07T04:29:40;4.43;;;3.55;;
32295;SDS011;18781;51.550;5.418;2023-03-07T04:32:06;4.55;;;3.35;;
32295;SDS011;18781;51.550;5.418;2023-03-07T04:34:31;7.38;;;3.60;;
32295;SDS011;18781;51.550;5.418;2023-03-07T04:36:57;4.95;;;3.53;;
32295;SDS011;18781;51.550;5.418;2023-03-07T04:39:23;4.90;;;3.53;;
32295;SDS011;18781;51.550;5.418;2023-03-07T04:41:49;5.07;;;3.65;;
32295;SDS011;18781;51.550;5.418;2023-03-07T04:44:14;6.70;;;3.30;;
32295;SDS011;18781;51.550;5.418;2023-03-07T04:46:41;5.05;;;3.20;;
32295;SDS011;18781;51.550;5.418;2023-03-07T04:49:06;6.15;;;3.03;;
32295;SDS011;18781;51.550;5.418;2023-03-07T04:51:32;7.25;;;3.22;;
32295;SDS011;18781;51.550;5.418;2023-03-07T04:53:58;6.95;;;3.47;;
32295;SDS011;18781;51.550;5.418;2023-03-07T04:56:23;6.45;;;3.42;;
32295;SDS011;18781;51.550;5.418;2023-03-07T04:58:50;5.95;;;2.88;;
32295;SDS011;18781;51.550;5.418;2023-03-07T05:01:15;3.67;;;3.05;;
32295;SDS011;18781;51.550;5.418;2023-03-07T05:03:41;6.00;;;3.13;;
32295;SDS011;18781;51.550;5.418;2023-03-07T05:06:10;3.33;;;2.55;;
32295;SDS011;18781;51.550;5.418;2023-03-07T05:08:38;7.13;;;3.20;;
32295;SDS011;18781;51.550;5.418;2023-03-07T05:11:04;5.13;;;3.53;;
32295;SDS011;18781;51.550;5.418;2023-03-07T05:13:30;5.50;;;3.47;;
32295;SDS011;18781;51.550;5.418;2023-03-07T05:15:56;5.65;;;3.50;;
32295;SDS011;18781;51.550;5.418;2023-03-07T05:18:22;7.00;;;3.80;;
32295;SDS011;18781;51.550;5.418;2023-03-07T05:20:48;6.50;;;3.55;;
32295;SDS011;18781;51.550;5.418;2023-03-07T05:23:14;9.18;;;4.03;;
32295;SDS011;18781;51.550;5.418;2023-03-07T05:25:41;5.10;;;4.03;;
32295;SDS011;18781;51.550;5.418;2023-03-07T05:28:06;6.68;;;4.00;;
32295;SDS011;18781;51.550;5.418;2023-03-07T05:30:32;7.38;;;4.22;;
32295;SDS011;18781;51.550;5.418;2023-03-07T05:32:58;6.28;;;3.58;;
32295;SDS011;18781;51.550;5.418;2023-03-07T05:35:24;6.03;;;3.92;;
32295;SDS011;18781;51.550;5.418;2023-03-07T05:37:50;7.72;;;3.88;;
32295;SDS011;18781;51.550;5.418;2023-03-07T05:40:16;6.80;;;3.65;;
32295;SDS011;18781;51.550;5.418;2023-03-07T05:42:43;7.25;;;3.60;;
32295;SDS011;18781;51.550;5.418;2023-03-07T05:45:09;6.80;;;3.65;;
32295;SDS011;18781;51.550;5.418;2023-03-07T05:47:35;6.32;;;3.42;;
32295;SDS011;18781;51.550;5.418;2023-03-07T05:50:02;5.47;;;3.35;;
32295;SDS011;18781;51.550;5.418;2023-03-07T05:52:29;5.32;;;3.65;;
32295;SDS011;18781;51.550;5.418;2023-03-07T05:54:54;5.82;;;3.67;;
32295;SDS011;18781;51.550;5.418;2023-03-07T05:57:20;5.85;;;3.25;;
32295;SDS011;18781;51.550;5.418;2023-03-07T05:59:46;8.98;;;3.20;;
32295;SDS011;18781;51.550;5.418;2023-03-07T06:02:12;8.05;;;3.22;;
32295;SDS011;18781;51.550;5.418;2023-03-07T06:04:38;9.77;;;4.22;;
32295;SDS011;18781;51.550;5.418;2023-03-07T06:07:03;6.90;;;3.53;;
32295;SDS011;18781;51.550;5.418;2023-03-07T06:09:29;7.90;;;3.58;;
32295;SDS011;18781;51.550;5.418;2023-03-07T06:11:54;8.40;;;3.70;;
32295;SDS011;18781;51.550;5.418;2023-03-07T06:14:20;8.60;;;3.85;;
32295;SDS011;18781;51.550;5.418;2023-03-07T06:16:46;6.00;;;3.63;;
32295;SDS011;18781;51.550;5.418;2023-03-07T06:19:11;6.22;;;4.00;;
32295;SDS011;18781;51.550;5.418;2023-03-07T06:21:37;8.55;;;3.50;;
32295;SDS011;18781;51.550;5.418;2023-03-07T06:24:03;5.68;;;3.55;;
32295;SDS011;18781;51.550;5.418;2023-03-07T06:26:29;7.07;;;3.83;;
32295;SDS011;18781;51.550;5.418;2023-03-07T06:28:55;5.10;;;3.67;;
32295;SDS011;18781;51.550;5.418;2023-03-07T06:31:21;7.10;;;4.20;;
32295;SDS011;18781;51.550;5.418;2023-03-07T06:33:46;8.32;;;4.68;;
32295;SDS011;18781;51.550;5.418;2023-03-07T06:36:13;6.95;;;4.25;;
32295;SDS011;18781;51.550;5.418;2023-03-07T06:38:40;6.20;;;4.32;;
32295;SDS011;18781;51.550;5.418;2023-03-07T06:41:07;8.07;;;4.88;;
32295;SDS011;18781;51.550;5.418;2023-03-07T06:43:33;9.90;;;5.07;;
32295;SDS011;18781;51.550;5.418;2023-03-07T06:45:59;9.80;;;4.63;;
32295;SDS011;18781;51.550;5.418;2023-03-07T06:48:25;9.30;;;4.55;;
32295;SDS011;18781;51.550;5.418;2023-03-07T06:50:50;9.82;;;5.00;;
32295;SDS011;18781;51.550;5.418;2023-03-07T06:53:16;7.18;;;4.72;;
32295;SDS011;18781;51.550;5.418;2023-03-07T06:55:42;8.90;;;4.35;;
32295;SDS011;18781;51.550;5.418;2023-03-07T06:58:07;7.05;;;4.70;;
32295;SDS011;18781;51.550;5.418;2023-03-07T07:00:33;6.75;;;4.57;;
32295;SDS011;18781;51.550;5.418;2023-03-07T07:02:58;7.65;;;4.57;;
32295;SDS011;18781;51.550;5.418;2023-03-07T07:05:24;5.38;;;3.97;;
32295;SDS011;18781;51.550;5.418;2023-03-07T07:07:50;6.00;;;4.40;;
32295;SDS011;18781;51.550;5.418;2023-03-07T07:10:15;7.35;;;4.30;;
32295;SDS011;18781;51.550;5.418;2023-03-07T07:12:41;5.50;;;3.75;;
32295;SDS011;18781;51.550;5.418;2023-03-07T07:15:07;6.78;;;4.55;;
32295;SDS011;18781;51.550;5.418;2023-03-07T07:17:33;7.35;;;4.40;;
32295;SDS011;18781;51.550;5.418;2023-03-07T07:19:59;7.70;;;4.15;;
32295;SDS011;18781;51.550;5.418;2023-03-07T07:22:32;5.68;;;4.05;;
32295;SDS011;18781;51.550;5.418;2023-03-07T07:24:58;8.57;;;4.88;;
32295;SDS011;18781;51.550;5.418;2023-03-07T07:27:24;5.65;;;4.13;;
32295;SDS011;18781;51.550;5.418;2023-03-07T07:29:49;6.32;;;4.45;;
32295;SDS011;18781;51.550;5.418;2023-03-07T07:32:16;7.15;;;4.15;;
32295;SDS011;18781;51.550;5.418;2023-03-07T07:34:41;6.70;;;4.63;;
32295;SDS011;18781;51.550;5.418;2023-03-07T07:37:07;11.07;;;4.72;;
32295;SDS011;18781;51.550;5.418;2023-03-07T07:39:32;7.07;;;4.57;;
32295;SDS011;18781;51.550;5.418;2023-03-07T07:41:58;7.00;;;4.53;;
32295;SDS011;18781;51.550;5.418;2023-03-07T07:44:24;6.50;;;4.50;;
32295;SDS011;18781;51.550;5.418;2023-03-07T07:46:52;6.40;;;4.68;;
32295;SDS011;18781;51.550;5.418;2023-03-07T07:49:18;9.50;;;5.00;;
32295;SDS011;18781;51.550;5.418;2023-03-07T07:51:43;5.97;;;4.53;;
32295;SDS011;18781;51.550;5.418;2023-03-07T07:54:09;7.80;;;5.05;;
32295;SDS011;18781;51.550;5.418;2023-03-07T07:56:34;6.32;;;4.68;;
32295;SDS011;18781;51.550;5.418;2023-03-07T07:59:00;7.15;;;5.30;;
32295;SDS011;18781;51.550;5.418;2023-03-07T08:01:26;8.60;;;5.55;;
32295;SDS011;18781;51.550;5.418;2023-03-07T08:03:51;7.70;;;5.45;;
32295;SDS011;18781;51.550;5.418;2023-03-07T08:06:18;9.02;;;5.47;;
32295;SDS011;18781;51.550;5.418;2023-03-07T08:08:45;8.48;;;5.18;;
32295;SDS011;18781;51.550;5.418;2023-03-07T08:11:10;9.30;;;5.88;;
32295;SDS011;18781;51.550;5.418;2023-03-07T08:13:36;9.25;;;5.97;;
32295;SDS011;18781;51.550;5.418;2023-03-07T08:16:09;8.70;;;5.88;;
32295;SDS011;18781;51.550;5.418;2023-03-07T08:18:35;9.90;;;6.32;;
32295;SDS011;18781;51.550;5.418;2023-03-07T08:21:01;10.40;;;7.65;;
32295;SDS011;18781;51.550;5.418;2023-03-07T08:23:26;12.55;;;7.85;;
32295;SDS011;18781;51.550;5.418;2023-03-07T08:25:52;10.73;;;8.48;;
32295;SDS011;18781;51.550;5.418;2023-03-07T08:28:17;11.45;;;8.93;;
32295;SDS011;18781;51.550;5.418;2023-03-07T08:30:43;12.40;;;9.38;;
32295;SDS011;18781;51.550;5.418;2023-03-07T08:33:09;14.23;;;10.40;;
32295;SDS011;18781;51.550;5.418;2023-03-07T08:35:34;14.40;;;10.75;;
32295;SDS011;18781;51.550;5.418;2023-03-07T08:38:00;14.30;;;11.00;;
32295;SDS011;18781;51.550;5.418;2023-03-07T08:40:26;14.68;;;10.57;;
32295;SDS011;18781;51.550;5.418;2023-03-07T08:42:53;15.57;;;10.48;;
32295;SDS011;18781;51.550;5.418;2023-03-07T08:45:19;13.52;;;11.38;;
32295;SDS011;18781;51.550;5.418;2023-03-07T08:47:46;14.20;;;11.38;;
32295;SDS011;18781;51.550;5.418;2023-03-07T08:50:11;16.75;;;12.27;;
32295;SDS011;18781;51.550;5.418;2023-03-07T08:52:37;18.23;;;11.95;;
32295;SDS011;18781;51.550;5.418;2023-03-07T08:55:03;14.77;;;11.63;;
32295;SDS011;18781;51.550;5.418;2023-03-07T08:57:29;13.80;;;11.48;;
32295;SDS011;18781;51.550;5.418;2023-03-07T08:59:55;17.67;;;12.73;;
32295;SDS011;18781;51.550;5.418;2023-03-07T09:02:20;14.80;;;12.05;;
32295;SDS011;18781;51.550;5.418;2023-03-07T09:04:46;13.85;;;11.30;;
32295;SDS011;18781;51.550;5.418;2023-03-07T09:07:12;15.65;;;12.52;;
32295;SDS011;18781;51.550;5.418;2023-03-07T09:09:37;17.25;;;13.55;;
32295;SDS011;18781;51.550;5.418;2023-03-07T09:12:03;17.10;;;12.60;;
32295;SDS011;18781;51.550;5.418;2023-03-07T09:14:28;16.92;;;13.18;;
32295;SDS011;18781;51.550;5.418;2023-03-07T09:16:54;17.60;;;13.70;;
32295;SDS011;18781;51.550;5.418;2023-03-07T09:19:20;15.80;;;12.98;;
32295;SDS011;18781;51.550;5.418;2023-03-07T09:21:47;17.38;;;13.52;;
32295;SDS011;18781;51.550;5.418;2023-03-07T09:24:13;15.68;;;13.05;;
32295;SDS011;18781;51.550;5.418;2023-03-07T09:26:39;16.40;;;13.07;;
32295;SDS011;18781;51.550;5.418;2023-03-07T09:29:04;16.13;;;12.70;;
32295;SDS011;18781;51.550;5.418;2023-03-07T09:31:30;16.20;;;12.95;;
32295;SDS011;18781;51.550;5.418;2023-03-07T09:33:55;17.95;;;12.57;;
32295;SDS011;18781;51.550;5.418;2023-03-07T09:36:21;15.90;;;12.55;;
32295;SDS011;18781;51.550;5.418;2023-03-07T09:38:46;15.75;;;12.20;;
32295;SDS011;18781;51.550;5.418;2023-03-07T09:41:27;14.25;;;11.25;;
32295;SDS011;18781;51.550;5.418;2023-03-07T09:46:53;11.95;;;10.02;;
32295;SDS011;18781;51.550;5.418;2023-03-07T09:49:28;14.43;;;10.20;;
32295;SDS011;18781;51.550;5.418;2023-03-07T09:51:58;11.02;;;9.20;;
32295;SDS011;18781;51.550;5.418;2023-03-07T09:54:37;10.15;;;8.50;;
32295;SDS011;18781;51.550;5.418;2023-03-07T09:57:11;10.75;;;8.68;;
32295;SDS011;18781;51.550;5.418;2023-03-07T09:59:42;10.40;;;8.73;;
32295;SDS011;18781;51.550;5.418;2023-03-07T10:04:58;10.18;;;8.57;;
32295;SDS011;18781;51.550;5.418;2023-03-07T10:07:26;10.90;;;8.68;;
32295;SDS011;18781;51.550;5.418;2023-03-07T10:09:59;8.27;;;7.07;;
32295;SDS011;18781;51.550;5.418;2023-03-07T10:15:06;7.32;;;6.05;;
32295;SDS011;18781;51.550;5.418;2023-03-07T10:20:57;6.70;;;5.22;;
32295;SDS011;18781;51.550;5.418;2023-03-07T10:28:46;7.97;;;5.95;;
32295;SDS011;18781;51.550;5.418;2023-03-07T10:31:28;6.30;;;4.80;;
32295;SDS011;18781;51.550;5.418;2023-03-07T10:34:04;6.43;;;5.50;;
32295;SDS011;18781;51.550;5.418;2023-03-07T10:36:45;7.82;;;5.78;;
32295;SDS011;18781;51.550;5.418;2023-03-07T10:42:00;6.70;;;5.22;;
32295;SDS011;18781;51.550;5.418;2023-03-07T10:44:27;5.68;;;4.65;;
32295;SDS011;18781;51.550;5.418;2023-03-07T10:46:58;8.98;;;5.78;;
32295;SDS011;18781;51.550;5.418;2023-03-07T10:49:28;7.65;;;6.15;;
32295;SDS011;18781;51.550;5.418;2023-03-07T10:54:44;10.93;;;6.78;;
32295;SDS011;18781;51.550;5.418;2023-03-07T10:57:10;11.40;;;7.13;;
32295;SDS011;18781;51.550;5.418;2023-03-07T10:59:41;10.93;;;8.70;;
32295;SDS011;18781;51.550;5.418;2023-03-07T11:04:54;10.90;;;8.57;;
32295;SDS011;18781;51.550;5.418;2023-03-07T11:07:30;10.57;;;8.20;;
32295;SDS011;18781;51.550;5.418;2023-03-07T11:09:58;11.20;;;8.03;;
32295;SDS011;18781;51.550;5.418;2023-03-07T11:12:26;10.25;;;7.60;;
32295;SDS011;18781;51.550;5.418;2023-03-07T11:15:35;10.68;;;7.25;;
32295;SDS011;18781;51.550;5.418;2023-03-07T11:17:46;9.48;;;6.57;;
32295;SDS011;18781;51.550;5.418;2023-03-07T11:20:27;10.32;;;7.35;;
32295;SDS011;18781;51.550;5.418;2023-03-07T11:23:11;9.52;;;7.45;;
32295;SDS011;18781;51.550;5.418;2023-03-07T11:25:37;21.85;;;11.35;;
32295;SDS011;18781;51.550;5.418;2023-03-07T11:28:02;14.23;;;8.95;;
32295;SDS011;18781;51.550;5.418;2023-03-07T11:35:56;7.75;;;5.40;;
32295;SDS011;18781;51.550;5.418;2023-03-07T11:55:49;7.43;;;5.50;;
32295;SDS011;18781;51.550;5.418;2023-03-07T12:01:54;8.70;;;6.25;;
32295;SDS011;18781;51.550;5.418;2023-03-07T12:10:11;7.68;;;5.90;;
32295;SDS011;18781;51.550;5.418;2023-03-07T12:12:44;7.35;;;5.50;;
32295;SDS011;18781;51.550;5.418;2023-03-07T12:20:51;8.70;;;5.82;;
32295;SDS011;18781;51.550;5.418;2023-03-07T12:23:32;7.68;;;5.90;;
32295;SDS011;18781;51.550;5.418;2023-03-07T12:26:14;8.27;;;5.78;;
32295;SDS011;18781;51.550;5.418;2023-03-07T12:28:46;7.90;;;5.47;;
32295;SDS011;18781;51.550;5.418;2023-03-07T12:31:41;9.57;;;6.55;;
32295;SDS011;18781;51.550;5.418;2023-03-07T12:34:12;12.18;;;8.40;;
32295;SDS011;18781;51.550;5.418;2023-03-07T12:36:53;12.20;;;8.52;;
32295;SDS011;18781;51.550;5.418;2023-03-07T12:41:56;13.93;;;9.32;;
32295;SDS011;18781;51.550;5.418;2023-03-07T12:44:39;13.10;;;8.52;;
32295;SDS011;18781;51.550;5.418;2023-03-07T12:47:31;13.40;;;9.25;;
32295;SDS011;18781;51.550;5.418;2023-03-07T12:53:16;14.60;;;9.85;;
32295;SDS011;18781;51.550;5.418;2023-03-07T12:56:18;17.10;;;10.38;;
32295;SDS011;18781;51.550;5.418;2023-03-07T12:59:04;14.75;;;9.35;;
32295;SDS011;18781;51.550;5.418;2023-03-07T13:04:12;16.73;;;11.25;;
32295;SDS011;18781;51.550;5.418;2023-03-07T13:06:40;18.67;;;12.30;;
32295;SDS011;18781;51.550;5.418;2023-03-07T13:09:11;18.77;;;12.13;;
32295;SDS011;18781;51.550;5.418;2023-03-07T13:14:36;22.52;;;14.05;;
32295;SDS011;18781;51.550;5.418;2023-03-07T13:17:09;23.98;;;15.05;;
32295;SDS011;18781;51.550;5.418;2023-03-07T13:24:41;23.15;;;14.80;;
32295;SDS011;18781;51.550;5.418;2023-03-07T13:27:19;22.10;;;14.77;;
32295;SDS011;18781;51.550;5.418;2023-03-07T13:33:23;21.80;;;14.30;;
32295;SDS011;18781;51.550;5.418;2023-03-07T13:42:50;18.67;;;13.68;;
32295;SDS011;18781;51.550;5.418;2023-03-07T13:45:44;19.27;;;13.52;;
32295;SDS011;18781;51.550;5.418;2023-03-07T13:48:12;19.00;;;12.80;;
32295;SDS011;18781;51.550;5.418;2023-03-07T13:56:08;16.38;;;12.43;;
32295;SDS011;18781;51.550;5.418;2023-03-07T14:01:39;15.38;;;11.32;;
32295;SDS011;18781;51.550;5.418;2023-03-07T14:06:52;15.73;;;12.30;;
32295;SDS011;18781;51.550;5.418;2023-03-07T14:09:23;14.10;;;11.35;;
32295;SDS011;18781;51.550;5.418;2023-03-07T14:12:02;12.85;;;10.45;;
32295;SDS011;18781;51.550;5.418;2023-03-07T14:28:50;15.75;;;12.02;;
32295;SDS011;18781;51.550;5.418;2023-03-07T14:31:25;11.65;;;9.50;;
32295;SDS011;18781;51.550;5.418;2023-03-07T14:33:55;6.53;;;5.63;;
32295;SDS011;18781;51.550;5.418;2023-03-07T14:36:22;6.10;;;5.00;;
32295;SDS011;18781;51.550;5.418;2023-03-07T14:38:53;7.18;;;4.82;;
32295;SDS011;18781;51.550;5.418;2023-03-07T14:44:24;11.65;;;10.25;;
32295;SDS011;18781;51.550;5.418;2023-03-07T14:49:29;6.15;;;4.40;;
32295;SDS011;18781;51.550;5.418;2023-03-07T14:52:00;7.25;;;6.55;;
32295;SDS011;18781;51.550;5.418;2023-03-07T14:54:29;9.25;;;5.68;;
32295;SDS011;18781;51.550;5.418;2023-03-07T14:56:56;5.95;;;4.00;;
32295;SDS011;18781;51.550;5.418;2023-03-07T14:59:24;6.93;;;4.00;;
32295;SDS011;18781;51.550;5.418;2023-03-07T15:01:49;7.65;;;4.50;;
32295;SDS011;18781;51.550;5.418;2023-03-07T15:06:55;2.88;;;1.95;;
32295;SDS011;18781;51.550;5.418;2023-03-07T15:09:25;5.65;;;2.17;;
32295;SDS011;18781;51.550;5.418;2023-03-07T15:14:31;4.80;;;1.80;;
32295;SDS011;18781;51.550;5.418;2023-03-07T15:17:13;3.75;;;2.08;;
32295;SDS011;18781;51.550;5.418;2023-03-07T15:19:45;2.50;;;1.70;;
32295;SDS011;18781;51.550;5.418;2023-03-07T15:22:27;2.08;;;1.63;;
32295;SDS011;18781;51.550;5.418;2023-03-07T15:24:54;2.35;;;1.10;;
32295;SDS011;18781;51.550;5.418;2023-03-07T15:27:22;5.03;;;1.90;;
32295;SDS011;18781;51.550;5.418;2023-03-07T15:29:58;3.13;;;1.80;;
32295;SDS011;18781;51.550;5.418;2023-03-07T15:35:09;2.28;;;1.40;;
32295;SDS011;18781;51.550;5.418;2023-03-07T15:37:58;4.63;;;1.63;;
32295;SDS011;18781;51.550;5.418;2023-03-07T15:40:31;5.45;;;3.63;;
32295;SDS011;18781;51.550;5.418;2023-03-07T15:43:13;6.18;;;2.88;;
32295;SDS011;18781;51.550;5.418;2023-03-07T15:51:00;7.28;;;4.63;;
32295;SDS011;18781;51.550;5.418;2023-03-07T15:53:31;6.93;;;4.53;;
32295;SDS011;18781;51.550;5.418;2023-03-07T15:56:01;3.88;;;2.65;;
32295;SDS011;18781;51.550;5.418;2023-03-07T15:58:32;9.57;;;4.38;;
32295;SDS011;18781;51.550;5.418;2023-03-07T16:01:18;4.60;;;2.92;;
32295;SDS011;18781;51.550;5.418;2023-03-07T16:03:46;2.95;;;2.00;;
32295;SDS011;18781;51.550;5.418;2023-03-07T16:09:25;21.50;;;11.13;;
32295;SDS011;18781;51.550;5.418;2023-03-07T16:11:50;12.07;;;6.32;;
32295;SDS011;18781;51.550;5.418;2023-03-07T16:14:24;8.85;;;3.90;;
32295;SDS011;18781;51.550;5.418;2023-03-07T16:16:55;7.50;;;4.15;;
32295;SDS011;18781;51.550;5.418;2023-03-07T16:19:24;7.10;;;5.97;;
32295;SDS011;18781;51.550;5.418;2023-03-07T16:21:49;7.38;;;5.85;;
32295;SDS011;18781;51.550;5.418;2023-03-07T16:24:15;8.10;;;6.28;;
32295;SDS011;18781;51.550;5.418;2023-03-07T16:26:41;7.38;;;4.32;;
32295;SDS011;18781;51.550;5.418;2023-03-07T16:29:09;8.38;;;4.85;;
32295;SDS011;18781;51.550;5.418;2023-03-07T16:31:42;11.65;;;6.95;;
32295;SDS011;18781;51.550;5.418;2023-03-07T16:34:18;15.15;;;9.13;;
32295;SDS011;18781;51.550;5.418;2023-03-07T16:36:45;5.50;;;2.85;;
32295;SDS011;18781;51.550;5.418;2023-03-07T16:39:12;3.97;;;1.85;;
32295;SDS011;18781;51.550;5.418;2023-03-07T16:41:42;5.70;;;2.00;;
32295;SDS011;18781;51.550;5.418;2023-03-07T16:44:14;5.75;;;1.98;;
32295;SDS011;18781;51.550;5.418;2023-03-07T16:46:42;6.97;;;1.88;;
32295;SDS011;18781;51.550;5.418;2023-03-07T16:49:17;8.43;;;3.90;;
32295;SDS011;18781;51.550;5.418;2023-03-07T16:51:43;11.23;;;4.68;;
32295;SDS011;18781;51.550;5.418;2023-03-07T16:54:09;7.38;;;3.50;;
32295;SDS011;18781;51.550;5.418;2023-03-07T16:56:35;7.75;;;2.42;;
32295;SDS011;18781;51.550;5.418;2023-03-07T16:59:15;6.90;;;3.78;;
32295;SDS011;18781;51.550;5.418;2023-03-07T17:01:44;9.80;;;4.30;;
32295;SDS011;18781;51.550;5.418;2023-03-07T17:04:11;16.05;;;6.22;;
32295;SDS011;18781;51.550;5.418;2023-03-07T17:06:38;9.82;;;5.10;;
32295;SDS011;18781;51.550;5.418;2023-03-07T17:09:07;10.75;;;4.18;;
32295;SDS011;18781;51.550;5.418;2023-03-07T17:11:34;6.57;;;3.30;;
32295;SDS011;18781;51.550;5.418;2023-03-07T17:14:02;5.35;;;2.90;;
32295;SDS011;18781;51.550;5.418;2023-03-07T17:16:29;2.53;;;1.77;;
32295;SDS011;18781;51.550;5.418;2023-03-07T17:18:55;5.45;;;2.10;;